ESOWESKN

Guest
Details From ESOW - Vasteras
To ESKN - Stockholm Skavsta
Flight Number -
Tags generated
Created
Modified
Stats Distance 49 nm / 91 km
Max Altitude 100 ft / 30 m
Waypoints 3
Social Downloads 0
Likes 0
Share VATSIM

Download

Looking for another format? Having issues loading an existing format? Contact us
Advertisement - Login to hide

Notes

Basic altitude profile: - Ascent Rate: 2500ft/min - Ascent Speed: 250kts - Cruise Altitude: 35000ft - Cruise Speed: 420kts - Descent Rate: 1500ft/min - Descent Speed: 250kts Options: - Use NATs: yes - Use PACOTS: yes - Use low airways: yes - Use high airways: yes

Route

ESOW ARS ESKN

ID Type Via Altitude Latitude Longitude Leg Dist Tot Dist Heading (true) Name
O ESOW APT - 0 ft / 0 m 59.58983˚ 16.63386˚ - 0 nm - Vasteras
ARS VOR - 100 ft / 30 m 59.58619˚ 16.65039˚ 0 nm 0 nm 113° / 113° AROS VOR-DME
O ESKN APT - 0 ft / 0 m 58.79044˚ 16.90733˚ 48 nm 48 nm 170° / 171° Stockholm Skavsta

Altitude Profile

Advertisement - Login to hide

ESOW

Details ICAO ESOW (VST)
Name Vasteras
Region Sweden
Timezone Europe/Stockholm (UTC+1.0)
Stats Elevation 21 ft / 6 m (AMSL)
Location 59.589829° 16.633862°
Runways 1
Magnetic Variation 5.578° E

METAR

ESOW 110750Z 04007KT 9999 FEW002 SCT035 M02/M03 Q0994 R01/720125

Decode

TAF

Not found

Departure Runways

ID Width Length Bearing (true) Bearing (mag) Surface Threshold Offset Overrun Length
01 151 ft / 46 m 8,454 ft / 2,577 m 11.62° 6.04° Asphalt 1,309 ft / 399 m 0 ft / 0 m
19 151 ft / 46 m 8,454 ft / 2,577 m 191.63° 186.05° Asphalt 0 ft / 0 m 0 ft / 0 m

ESKN

Details ICAO ESKN (NYO)
Name Stockholm Skavsta
Region Sweden
Timezone Europe/Stockholm (UTC+1.0)
Stats Elevation 140 ft / 43 m (AMSL)
Location 58.790439° 16.907328°
Runways 2
Magnetic Variation 5.565° E

METAR

ESKN 110750Z 06005KT 9999 SCT045 M02/M02 Q0992 R08/710136

Decode

TAF

TAF ESKN 110530Z 1106/1206 10006KT 9999 SCT025 PROB40 1106/1110 2000 SHSN BKN012 BKN020CB BECMG 1122/1124 4000 -SN BKN004 TEMPO 1200/1206 1000 SN VV010

Decode

Destination Runways

ID Width Length Bearing (true) Bearing (mag) Surface Threshold Offset Overrun Length
08 148 ft / 45 m 9,411 ft / 2,869 m 83.05° 77.48° Asphalt 420 ft / 128 m 0 ft / 0 m
16 131 ft / 40 m 6,679 ft / 2,036 m 161.82° 156.25° Asphalt 0 ft / 0 m 0 ft / 0 m
26 148 ft / 45 m 9,411 ft / 2,869 m 263.10° 257.53° Asphalt 0 ft / 0 m 0 ft / 0 m
34 131 ft / 40 m 6,679 ft / 2,036 m 341.83° 336.26° Asphalt 0 ft / 0 m 0 ft / 0 m

Approach Navaids

Runway Type Ident Frequency Range Bearing (true) Bearing (mag) Slope Elevation
08 Localiser WEK 111.30 MHz 18 nm / 33 km 83.07° 77.51° - 140 ft / 43 m (AMSL)
26 Localiser EKN 111.90 MHz 18 nm / 33 km 263.02° 257.46° - 140 ft / 43 m (AMSL)
26 Glidescope EKN 111.90 MHz 10 nm / 19 km 263.07° 257.51° 3.00° 140 ft / 43 m (AMSL)